createdAt,value
2024-01-12T00:00:34.560Z,52.00
2024-01-12T00:04:45.038Z,48.50
2024-01-12T00:08:35.286Z,50.20
2024-01-12T00:12:24.810Z,49.30
2024-01-12T00:16:15.489Z,58.00
2024-01-12T00:20:05.969Z,50.60
2024-01-12T00:23:56.144Z,50.10
2024-01-12T00:27:46.965Z,49.70
2024-01-12T00:31:36.656Z,49.70
2024-01-12T00:35:08.742Z,47.30
2024-01-12T00:38:58.236Z,50.50
2024-01-12T00:42:47.832Z,47.90
2024-01-12T00:46:38.499Z,51.20
2024-01-12T00:50:28.166Z,51.00
2024-01-12T00:54:18.936Z,47.30
2024-01-12T00:58:08.902Z,44.20
2024-01-12T01:01:58.801Z,45.00
2024-01-12T01:05:49.286Z,46.00
2024-01-12T01:09:39.494Z,46.60
2024-01-12T01:13:28.918Z,41.70
2024-01-12T01:17:19.048Z,42.10
2024-01-12T01:21:08.736Z,47.70
2024-01-12T01:24:58.709Z,51.80
2024-01-12T01:28:48.774Z,54.80
2024-01-12T01:32:38.414Z,48.10
2024-01-12T01:36:28.642Z,46.00
2024-01-12T01:40:10.476Z,43.60
2024-01-12T01:44:01.102Z,43.40
2024-01-12T01:47:51.033Z,40.40
2024-01-12T01:51:29.017Z,38.50
2024-01-12T01:55:11.210Z,39.90
2024-01-12T01:59:01.055Z,40.20
2024-01-12T02:02:50.469Z,40.60
2024-01-12T02:06:42.717Z,42.70
2024-01-12T02:10:32.629Z,38.70
2024-01-12T02:14:22.777Z,45.30
2024-01-12T02:18:12.880Z,35.40
2024-01-12T02:22:02.324Z,35.60
2024-01-12T02:25:52.399Z,38.30
2024-01-12T02:29:42.027Z,43.40
2024-01-12T02:33:31.504Z,40.10
2024-01-12T02:37:20.989Z,39.00
2024-01-12T02:41:10.811Z,39.80
2024-01-12T02:45:00.533Z,45.40
2024-01-12T02:48:42.551Z,40.20
2024-01-12T02:52:32.602Z,36.70
2024-01-12T02:56:22.735Z,38.00
2024-01-12T03:00:12.576Z,40.80
2024-01-12T03:04:02.055Z,45.10
2024-01-12T03:07:52.656Z,41.00
2024-01-12T03:11:43.780Z,39.90
2024-01-12T03:15:33.986Z,41.50
2024-01-12T03:19:24.119Z,38.90
2024-01-12T03:23:14.763Z,35.00
2024-01-12T03:27:04.229Z,39.80
2024-01-12T03:30:54.622Z,34.30
2024-01-12T03:34:44.401Z,43.80
2024-01-12T03:38:34.051Z,36.80
2024-01-12T03:42:09.022Z,42.30
2024-01-12T03:45:58.486Z,35.70
2024-01-12T03:49:51.236Z,41.50
2024-01-12T03:53:42.410Z,32.00
2024-01-12T03:57:33.060Z,43.70
2024-01-12T04:01:22.415Z,41.80
2024-01-12T04:05:11.895Z,38.70
2024-01-12T04:09:01.989Z,32.70
2024-01-12T04:12:53.067Z,34.00
2024-01-12T04:16:43.517Z,35.10
2024-01-12T04:20:32.981Z,18.30
2024-01-12T04:24:22.758Z,11.70
2024-01-12T04:28:13.037Z,8.80
2024-01-12T04:32:05.406Z,8.50
2024-01-12T04:35:55.208Z,13.20
2024-01-12T04:39:45.638Z,20.10
2024-01-12T04:43:34.971Z,24.50
2024-01-12T04:47:23.215Z,31.30
2024-01-12T04:51:06.062Z,36.70
2024-01-12T04:54:34.596Z,26.90
2024-01-12T04:58:24.700Z,30.80
2024-01-12T05:02:14.400Z,24.00
2024-01-12T05:06:04.181Z,17.80
2024-01-12T05:09:53.749Z,13.90
2024-01-12T05:13:43.840Z,10.90
2024-01-12T05:17:36.769Z,9.70
2024-01-12T05:21:26.356Z,11.90
2024-01-12T05:25:14.816Z,9.50
2024-01-12T05:29:04.909Z,11.20
2024-01-12T05:32:54.887Z,12.50
2024-01-12T05:36:44.612Z,10.90
2024-01-12T05:40:34.668Z,13.40
2024-01-12T05:44:24.227Z,14.30
2024-01-12T05:48:13.763Z,21.00
2024-01-12T05:52:04.995Z,36.30
2024-01-12T05:55:55.261Z,40.10
2024-01-12T05:59:46.367Z,35.60
2024-01-12T06:03:35.914Z,39.70
2024-01-12T06:07:25.161Z,34.30
2024-01-12T06:11:15.449Z,40.20
2024-01-12T06:14:54.813Z,29.80
2024-01-12T06:18:45.114Z,19.80
2024-01-12T06:22:36.383Z,12.80
2024-01-12T06:26:26.594Z,16.10
2024-01-12T06:30:16.270Z,14.90
2024-01-12T06:34:06.053Z,13.70
2024-01-12T06:37:56.549Z,12.70
2024-01-12T06:41:46.193Z,13.20
2024-01-12T06:45:36.392Z,10.60
2024-01-12T06:49:26.801Z,15.90
2024-01-12T06:53:17.282Z,39.50
2024-01-12T06:56:44.668Z,46.50
2024-01-12T07:00:36.100Z,45.70
2024-01-12T07:04:26.124Z,39.90
2024-01-12T07:08:15.673Z,42.30
2024-01-12T07:12:05.157Z,38.70
2024-01-12T07:15:54.715Z,38.20
2024-01-12T07:20:05.668Z,28.70
2024-01-12T07:23:56.176Z,18.20
2024-01-12T07:27:47.271Z,16.00
2024-01-12T07:31:32.048Z,15.80
2024-01-12T07:35:22.171Z,16.70
2024-01-12T07:39:11.888Z,15.60
2024-01-12T07:43:01.490Z,20.00
2024-01-12T07:46:51.424Z,25.00
2024-01-12T07:50:42.282Z,22.30
2024-01-12T07:54:20.395Z,24.00
2024-01-12T07:58:10.174Z,24.60
2024-01-12T08:01:59.608Z,27.90
2024-01-12T08:05:53.313Z,40.00
2024-01-12T08:09:42.831Z,30.90
2024-01-12T08:13:32.925Z,24.30
2024-01-12T08:17:22.340Z,26.60
2024-01-12T08:21:13.552Z,37.20
2024-01-12T08:24:48.718Z,44.40
2024-01-12T08:28:39.453Z,41.40
2024-01-12T08:32:20.726Z,40.30
2024-01-12T08:35:44.510Z,37.10
2024-01-12T08:39:34.038Z,43.10
2024-01-12T08:43:23.661Z,44.70
2024-01-12T08:47:13.615Z,45.30
2024-01-12T08:51:04.807Z,36.20
2024-01-12T08:54:55.579Z,35.60
2024-01-12T08:58:43.809Z,38.20
2024-01-12T09:02:32.515Z,46.20
2024-01-12T09:06:23.236Z,41.00
2024-01-12T09:10:13.965Z,41.10
2024-01-12T09:14:04.245Z,41.00
2024-01-12T09:17:55.444Z,38.60
2024-01-12T09:21:46.583Z,35.50
2024-01-12T09:25:38.973Z,34.40
2024-01-12T09:29:27.997Z,42.90
2024-01-12T09:33:10.410Z,36.40
2024-01-12T09:37:00.755Z,34.70
2024-01-12T09:40:50.797Z,44.10
2024-01-12T09:44:44.940Z,38.00
2024-01-12T09:48:41.460Z,38.10
2024-01-12T09:52:22.780Z,41.90
2024-01-12T09:56:12.224Z,43.60
2024-01-12T10:00:02.030Z,46.00
2024-01-12T10:03:51.705Z,42.10
2024-01-12T10:07:28.267Z,43.80
2024-01-12T10:11:19.226Z,37.60
2024-01-12T10:15:08.909Z,45.40
2024-01-12T10:18:58.969Z,45.00
2024-01-12T10:22:48.730Z,51.30
2024-01-12T10:26:40.352Z,46.00
2024-01-12T10:30:30.049Z,40.40
2024-01-12T10:34:22.545Z,39.10
2024-01-12T10:38:12.743Z,41.10
2024-01-12T10:42:03.996Z,34.20
2024-01-12T10:45:54.538Z,35.30
2024-01-12T10:49:49.971Z,32.00
2024-01-12T10:53:40.289Z,30.30
2024-01-12T10:57:29.830Z,34.50
2024-01-12T11:01:02.158Z,32.60
2024-01-12T11:04:52.175Z,35.60
2024-01-12T11:08:41.920Z,34.40
2024-01-12T11:12:23.947Z,34.70
2024-01-12T11:16:13.325Z,35.90
2024-01-12T11:20:03.323Z,35.80
2024-01-12T11:23:54.949Z,33.00
2024-01-12T11:27:44.967Z,33.40
2024-01-12T11:31:34.603Z,31.70
2024-01-12T11:35:26.460Z,32.00
2024-01-12T11:39:21.331Z,31.60
2024-01-12T11:43:11.601Z,35.30
2024-01-12T11:47:02.278Z,31.10
2024-01-12T11:50:52.690Z,34.60
2024-01-12T11:54:43.261Z,35.10
2024-01-12T11:58:33.738Z,32.10
2024-01-12T12:02:23.251Z,34.40
2024-01-12T12:06:13.176Z,33.50
2024-01-12T12:09:47.899Z,31.00
2024-01-12T12:13:40.329Z,36.80
2024-01-12T12:17:33.600Z,31.60
2024-01-12T12:21:23.872Z,35.00
2024-01-12T12:25:14.499Z,28.20
2024-01-12T12:29:05.084Z,27.50
2024-01-12T12:32:54.669Z,27.50
2024-01-12T12:36:44.972Z,23.20
2024-01-12T12:40:36.515Z,25.00
2024-01-12T12:44:26.019Z,24.20
2024-01-12T12:48:16.301Z,25.20
2024-01-12T12:52:09.096Z,27.90
2024-01-12T12:55:50.233Z,27.60
2024-01-12T12:59:40.800Z,24.80
2024-01-12T13:03:32.575Z,24.30
2024-01-12T13:07:21.047Z,28.10
2024-01-12T13:10:43.146Z,22.70
2024-01-12T13:14:33.304Z,24.60
2024-01-12T13:18:23.037Z,28.40
2024-01-12T13:22:13.605Z,25.20
2024-01-12T13:26:04.172Z,25.00
2024-01-12T13:29:54.439Z,24.80
2024-01-12T13:33:46.221Z,27.00
2024-01-12T13:37:36.419Z,30.80
2024-01-12T13:41:28.103Z,28.60
2024-01-12T13:45:19.027Z,30.60
2024-01-12T13:49:08.928Z,26.70
2024-01-12T13:52:58.449Z,31.30
2024-01-12T13:56:47.357Z,31.00
2024-01-12T14:00:36.811Z,27.40
2024-01-12T14:04:26.265Z,35.70
2024-01-12T14:08:16.332Z,34.20
2024-01-12T14:12:08.374Z,38.80
2024-01-12T14:16:00.004Z,30.40
2024-01-12T14:19:49.527Z,32.50
2024-01-12T14:23:40.025Z,21.60
2024-01-12T14:27:29.597Z,19.60
2024-01-12T14:31:19.658Z,18.60
2024-01-12T14:35:10.194Z,14.60
2024-01-12T14:38:59.909Z,15.60
2024-01-12T14:42:48.961Z,14.60
2024-01-12T14:46:38.651Z,13.90
2024-01-12T14:50:28.751Z,13.40
2024-01-12T14:54:09.115Z,14.40
2024-01-12T14:57:58.642Z,7.80
2024-01-12T15:01:49.055Z,10.00
2024-01-12T15:05:38.653Z,13.70
2024-01-12T15:09:28.685Z,9.70
2024-01-12T15:13:18.363Z,10.50
2024-01-12T15:17:08.666Z,7.30
2024-01-12T15:20:59.027Z,7.70
2024-01-12T15:24:48.514Z,9.10
2024-01-12T15:28:38.541Z,8.70
2024-01-12T15:32:29.287Z,8.20
2024-01-12T15:36:19.257Z,8.30
2024-01-12T15:40:08.837Z,8.40
2024-01-12T15:43:59.429Z,9.00
2024-01-12T15:47:49.638Z,7.20
2024-01-12T15:51:39.678Z,6.50
2024-01-12T15:55:30.229Z,7.60
2024-01-12T15:59:20.310Z,8.30
2024-01-12T16:03:09.964Z,6.20
2024-01-12T16:06:59.698Z,11.30
2024-01-12T16:10:42.212Z,8.20
2024-01-12T16:14:32.292Z,8.10
2024-01-12T16:18:21.851Z,10.10
2024-01-12T16:22:11.329Z,7.50
2024-01-12T16:26:02.433Z,7.70
2024-01-12T16:29:52.578Z,8.30
2024-01-12T16:33:43.462Z,6.80
2024-01-12T16:37:33.068Z,9.30
2024-01-12T16:41:10.726Z,7.60
2024-01-12T16:44:56.029Z,9.40
2024-01-12T16:48:49.254Z,8.40
2024-01-12T16:52:41.654Z,8.70
2024-01-12T16:56:32.848Z,6.30
2024-01-12T17:00:23.752Z,6.60
2024-01-12T17:04:13.343Z,6.30
2024-01-12T17:08:02.738Z,7.00
2024-01-12T17:11:52.835Z,5.40
2024-01-12T17:15:42.866Z,7.60
2024-01-12T17:19:31.279Z,4.50
2024-01-12T17:23:21.547Z,7.30
2024-01-12T17:27:12.861Z,6.20
2024-01-12T17:31:02.404Z,5.70
2024-01-12T17:34:50.526Z,6.40
2024-01-12T17:38:40.184Z,7.30
2024-01-12T17:42:30.312Z,8.60
2024-01-12T17:46:10.616Z,8.20
2024-01-12T17:50:00.816Z,6.50
2024-01-12T17:53:51.034Z,8.00
2024-01-12T17:57:33.249Z,6.80
2024-01-12T18:01:22.925Z,6.20
2024-01-12T18:05:13.680Z,9.00
2024-01-12T18:09:03.211Z,6.00
2024-01-12T18:12:44.532Z,6.10
2024-01-12T18:16:35.452Z,7.80
2024-01-12T18:20:26.580Z,6.10
2024-01-12T18:24:16.527Z,6.50
2024-01-12T18:28:06.200Z,6.60
2024-01-12T18:31:55.760Z,9.80
2024-01-12T18:35:47.960Z,6.80
2024-01-12T18:39:37.468Z,8.00
2024-01-12T18:43:28.508Z,8.10
2024-01-12T18:47:18.677Z,7.20
2024-01-12T18:51:09.129Z,7.40
2024-01-12T18:54:58.588Z,7.40
2024-01-12T18:58:49.598Z,7.40
2024-01-12T19:02:40.921Z,6.50
2024-01-12T19:06:32.426Z,6.60
2024-01-12T19:10:22.013Z,8.00
2024-01-12T19:14:12.518Z,7.90
2024-01-12T19:18:03.543Z,13.30
2024-01-12T19:21:57.572Z,9.80
2024-01-12T19:25:47.621Z,9.60
2024-01-12T19:29:38.523Z,7.90
2024-01-12T19:33:28.364Z,9.60
2024-01-12T19:37:16.539Z,8.40
2024-01-12T19:40:51.000Z,7.90
2024-01-12T19:44:41.797Z,6.40
2024-01-12T19:48:31.982Z,6.90
2024-01-12T19:52:22.322Z,6.30
2024-01-12T19:56:12.896Z,7.50
2024-01-12T20:00:02.701Z,8.20
2024-01-12T20:03:52.857Z,9.20
2024-01-12T20:07:42.366Z,6.60
2024-01-12T20:11:32.485Z,7.90
2024-01-12T20:15:22.612Z,6.50
2024-01-12T20:19:13.922Z,7.80
2024-01-12T20:23:04.199Z,8.50
2024-01-12T20:26:50.225Z,8.90
2024-01-12T20:30:40.928Z,7.50
2024-01-12T20:34:31.712Z,7.50
2024-01-12T20:38:21.953Z,7.70
2024-01-12T20:42:12.235Z,6.90
2024-01-12T20:46:01.647Z,6.00
2024-01-12T20:49:51.789Z,6.50
2024-01-12T20:53:41.996Z,8.50
2024-01-12T20:57:31.440Z,6.80
2024-01-12T21:01:22.835Z,8.00
2024-01-12T21:05:12.385Z,8.70
2024-01-12T21:09:02.555Z,10.90
2024-01-12T21:12:52.639Z,10.30
2024-01-12T21:16:42.077Z,13.30
2024-01-12T21:20:31.959Z,8.80
2024-01-12T21:24:23.208Z,12.60
2024-01-12T21:28:12.777Z,9.10
2024-01-12T21:32:03.736Z,7.90
2024-01-12T21:35:53.799Z,11.30
2024-01-12T21:39:45.874Z,7.20
2024-01-12T21:43:35.286Z,8.20
2024-01-12T21:47:27.154Z,5.80
2024-01-12T21:51:17.956Z,9.40
2024-01-12T21:55:08.190Z,6.90
2024-01-12T21:58:57.618Z,7.30
2024-01-12T22:02:48.077Z,8.80
2024-01-12T22:06:37.608Z,7.30
2024-01-12T22:10:27.225Z,7.70
2024-01-12T22:14:17.377Z,7.00
2024-01-12T22:18:06.922Z,6.80
2024-01-12T22:21:56.337Z,8.40
2024-01-12T22:25:45.530Z,8.20
2024-01-12T22:29:35.480Z,11.10
2024-01-12T22:33:25.405Z,9.60
2024-01-12T22:37:11.133Z,8.00
2024-01-12T22:41:01.170Z,7.10
2024-01-12T22:44:51.929Z,9.70
2024-01-12T22:48:41.511Z,5.60
2024-01-12T22:52:31.723Z,8.10
2024-01-12T22:56:24.477Z,8.30
2024-01-12T23:00:15.156Z,9.30
2024-01-12T23:03:57.219Z,7.90
2024-01-12T23:07:47.390Z,8.80
2024-01-12T23:11:45.769Z,8.60
2024-01-12T23:15:35.248Z,8.80
2024-01-12T23:19:25.498Z,7.80
2024-01-12T23:23:15.827Z,7.10
2024-01-12T23:27:07.312Z,6.40
2024-01-12T23:30:52.994Z,8.10
2024-01-12T23:34:43.357Z,10.50
2024-01-12T23:38:35.244Z,8.60
2024-01-12T23:42:25.078Z,7.00
2024-01-12T23:46:14.517Z,8.40
2024-01-12T23:50:05.194Z,8.70
2024-01-12T23:53:55.643Z,10.20
2024-01-12T23:57:46.279Z,9.40
